createdAt,value
2023-05-24T00:00:29.208Z,3.850
2023-05-24T00:01:29.109Z,3.800
2023-05-24T00:02:20.555Z,4.000
2023-05-24T00:03:25.753Z,4.000
2023-05-24T00:04:28.445Z,4.050
2023-05-24T00:05:22.107Z,3.950
2023-05-24T00:06:28.430Z,3.800
2023-05-24T00:07:22.597Z,3.900
2023-05-24T00:08:24.273Z,3.900
2023-05-24T00:09:22.551Z,4.200
2023-05-24T00:10:24.841Z,4.000
2023-05-24T00:11:27.756Z,3.950
2023-05-24T00:12:24.296Z,3.950
2023-05-24T00:13:32.091Z,4.100
2023-05-24T00:14:21.883Z,3.900
2023-05-24T00:15:24.246Z,3.900
2023-05-24T00:16:20.581Z,4.100
2023-05-24T00:17:28.268Z,4.000
2023-05-24T00:18:19.670Z,3.950
2023-05-24T00:19:22.443Z,4.200
2023-05-24T00:20:26.455Z,4.100
2023-05-24T00:21:31.055Z,4.050
2023-05-24T00:22:25.406Z,3.900
2023-05-24T00:23:22.115Z,4.300
2023-05-24T00:24:33.374Z,4.050
2023-05-24T00:25:26.702Z,3.950
2023-05-24T00:26:22.877Z,4.100
2023-05-24T00:27:32.508Z,4.000
2023-05-24T00:28:29.405Z,3.900
2023-05-24T00:29:26.851Z,4.300
2023-05-24T00:30:21.108Z,4.200
2023-05-24T00:31:25.109Z,4.050
2023-05-24T00:32:28.145Z,4.000
2023-05-24T00:33:22.728Z,4.300
2023-05-24T00:34:20.402Z,4.350
2023-05-24T00:35:29.136Z,4.050
2023-05-24T00:36:24.614Z,3.800
2023-05-24T00:37:24.889Z,4.100
2023-05-24T00:38:31.352Z,4.200
2023-05-24T00:39:27.796Z,4.200
2023-05-24T00:40:22.726Z,4.200
2023-05-24T00:41:32.388Z,4.100
2023-05-24T00:42:22.951Z,4.100
2023-05-24T00:43:24.536Z,3.950
2023-05-24T00:44:21.384Z,4.100
2023-05-24T00:45:20.476Z,4.300
2023-05-24T00:46:26.762Z,4.150
2023-05-24T00:47:22.780Z,4.400
2023-05-24T00:48:26.068Z,4.200
2023-05-24T00:49:30.844Z,4.050
2023-05-24T00:50:24.580Z,4.050
2023-05-24T00:51:22.326Z,4.200
2023-05-24T00:52:24.650Z,4.250
2023-05-24T00:53:26.560Z,4.300
2023-05-24T00:54:24.237Z,4.200
2023-05-24T00:55:29.179Z,4.000
2023-05-24T00:56:21.656Z,4.200
2023-05-24T00:57:26.436Z,3.850
2023-05-24T00:58:20.692Z,4.300
2023-05-24T00:59:24.089Z,4.400
2023-05-24T01:00:25.025Z,4.400
2023-05-24T01:01:24.225Z,4.600
2023-05-24T01:02:51.611Z,4.250
2023-05-24T01:03:44.515Z,4.500
2023-05-24T01:04:46.081Z,4.200
2023-05-24T01:05:25.925Z,4.300
2023-05-24T01:12:37.796Z,4.400
2023-05-24T01:13:30.057Z,4.450
2023-05-24T01:14:31.927Z,4.350
2023-05-24T01:16:27.325Z,4.100
2023-05-24T01:17:26.071Z,4.100
2023-05-24T01:22:25.466Z,4.300
2023-05-24T01:23:33.117Z,4.300
2023-05-24T01:24:28.630Z,4.350
2023-05-24T01:25:24.708Z,4.400
2023-05-24T01:26:24.102Z,4.250
2023-05-24T01:27:22.132Z,4.350
2023-05-24T01:28:23.154Z,4.500
2023-05-24T01:29:22.535Z,4.500
2023-05-24T01:30:23.312Z,4.900
2023-05-24T01:31:28.620Z,4.550
2023-05-24T01:32:24.688Z,4.800
2023-05-24T01:33:35.788Z,4.650
2023-05-24T01:34:21.025Z,4.500
2023-05-24T01:35:27.831Z,4.600
2023-05-24T01:36:22.669Z,4.900
2023-05-24T01:37:29.688Z,4.400
2023-05-24T01:38:20.095Z,4.200
2023-05-24T01:39:31.857Z,4.800
2023-05-24T01:40:31.200Z,4.400
2023-05-24T01:41:24.120Z,5.250
2023-05-24T01:42:31.725Z,4.600
2023-05-24T01:43:23.458Z,4.900
2023-05-24T01:44:25.720Z,4.650
2023-05-24T01:45:26.089Z,4.500
2023-05-24T01:46:25.038Z,4.600
2023-05-24T01:47:22.348Z,4.650
2023-05-24T01:48:30.325Z,5.000
2023-05-24T01:49:21.268Z,5.200
2023-05-24T01:50:30.026Z,4.750
2023-05-24T01:51:35.223Z,4.650
2023-05-24T01:52:28.419Z,4.600
2023-05-24T01:53:21.351Z,4.600
2023-05-24T01:54:22.179Z,4.600
2023-05-24T01:55:20.991Z,4.800
2023-05-24T01:56:28.536Z,4.900
2023-05-24T01:57:22.700Z,4.900
2023-05-24T01:58:34.525Z,4.650
2023-05-24T01:59:34.816Z,5.600
2023-05-24T02:00:26.486Z,4.700
2023-05-24T02:01:23.250Z,5.150
2023-05-24T02:02:31.651Z,4.850
2023-05-24T02:03:28.235Z,4.700
2023-05-24T02:04:25.148Z,5.050
2023-05-24T02:05:47.721Z,5.400
2023-05-24T02:06:35.927Z,4.800
2023-05-24T02:07:34.798Z,5.400
2023-05-24T02:08:23.918Z,5.000
2023-05-24T02:09:30.805Z,4.700
2023-05-24T02:10:28.691Z,5.150
2023-05-24T02:11:28.301Z,4.750
2023-05-24T02:12:22.770Z,5.000
2023-05-24T02:13:36.813Z,4.700
2023-05-24T02:14:38.683Z,4.800
2023-05-24T02:15:24.838Z,5.100
2023-05-24T02:16:45.987Z,5.000
2023-05-24T02:17:45.401Z,5.200
2023-05-24T02:18:22.370Z,5.100
2023-05-24T02:19:24.168Z,5.300
2023-05-24T02:20:30.025Z,4.900
2023-05-24T02:21:25.726Z,5.200
2023-05-24T02:22:28.236Z,5.150
2023-05-24T02:23:20.966Z,5.100
2023-05-24T02:24:35.805Z,4.900
2023-05-24T02:25:22.816Z,5.000
2023-05-24T02:26:30.166Z,4.650
2023-05-24T02:27:21.350Z,5.200
2023-05-24T02:28:42.942Z,5.200
2023-05-24T02:29:26.137Z,5.000
2023-05-24T02:30:27.156Z,5.550
2023-05-24T02:31:20.889Z,5.200
2023-05-24T02:32:38.812Z,5.100
2023-05-24T02:33:24.270Z,5.500
2023-05-24T02:34:26.134Z,5.300
2023-05-24T02:35:30.924Z,5.600
2023-05-24T02:36:34.454Z,5.300
2023-05-24T02:37:31.660Z,5.150
2023-05-24T02:38:24.563Z,5.600
2023-05-24T02:39:22.888Z,5.700
2023-05-24T02:40:21.956Z,5.300
2023-05-24T02:41:30.944Z,5.500
2023-05-24T02:42:24.765Z,5.450
2023-05-24T02:43:35.812Z,5.400
2023-05-24T02:44:22.010Z,5.000
2023-05-24T02:45:29.417Z,5.400
2023-05-24T02:46:22.452Z,5.600
2023-05-24T02:47:30.317Z,5.300
2023-05-24T02:48:33.826Z,4.900
2023-05-24T02:49:28.264Z,5.650
2023-05-24T02:50:20.377Z,5.100
2023-05-24T02:51:25.197Z,5.050
2023-05-24T02:52:26.274Z,4.900
2023-05-24T02:53:26.545Z,5.300
2023-05-24T02:54:33.094Z,5.400
2023-05-24T02:55:22.884Z,5.000
2023-05-24T02:56:24.587Z,5.200
2023-05-24T02:57:22.635Z,4.900
2023-05-24T02:58:31.435Z,5.650
2023-05-24T02:59:36.436Z,5.200
2023-05-24T03:00:30.527Z,5.200
2023-05-24T03:01:22.947Z,5.000
2023-05-24T03:02:24.663Z,5.700
2023-05-24T03:03:25.340Z,5.650
2023-05-24T03:04:27.895Z,5.600
2023-05-24T03:05:22.777Z,5.800
2023-05-24T03:06:26.420Z,5.550
2023-05-24T03:07:34.648Z,5.900
2023-05-24T03:08:20.856Z,5.400
2023-05-24T03:09:28.829Z,5.100
2023-05-24T03:10:25.859Z,5.050
2023-05-24T03:11:20.506Z,5.250
2023-05-24T03:12:26.634Z,4.800
2023-05-24T03:13:21.229Z,5.050
2023-05-24T03:15:33.783Z,5.750
2023-05-24T03:16:25.717Z,5.200
2023-05-24T03:17:44.918Z,5.400
2023-05-24T03:18:37.774Z,5.400
2023-05-24T03:19:29.764Z,5.900
2023-05-24T03:20:24.224Z,5.500
2023-05-24T03:21:41.351Z,5.400
2023-05-24T03:22:35.978Z,5.400
2023-05-24T03:23:29.129Z,5.400
2023-05-24T03:24:20.742Z,5.200
2023-05-24T03:25:23.854Z,5.150
2023-05-24T03:26:37.056Z,4.700
2023-05-24T03:27:27.414Z,5.400
2023-05-24T03:28:22.464Z,5.200
2023-05-24T03:29:33.826Z,5.350
2023-05-24T03:30:32.999Z,5.100
2023-05-24T03:31:24.875Z,5.400
2023-05-24T03:32:36.158Z,5.850
2023-05-24T03:33:38.053Z,5.600
2023-05-24T03:34:32.068Z,5.550
2023-05-24T03:35:23.941Z,5.900
2023-05-24T03:36:21.025Z,5.650
2023-05-24T03:37:39.865Z,6.100
2023-05-24T03:38:25.451Z,5.300
2023-05-24T03:39:23.125Z,5.700
2023-05-24T03:40:48.161Z,5.700
2023-05-24T03:41:36.151Z,5.600
2023-05-24T03:42:22.252Z,5.600
2023-05-24T03:43:20.839Z,5.850
2023-05-24T03:44:43.299Z,5.600
2023-05-24T03:45:38.655Z,5.400
2023-05-24T03:46:25.402Z,5.350
2023-05-24T03:47:48.445Z,5.600
2023-05-24T03:48:28.914Z,5.800
2023-05-24T03:49:24.385Z,5.400
2023-05-24T03:50:25.115Z,5.150
2023-05-24T03:51:46.316Z,5.800
2023-05-24T03:52:33.220Z,5.400
2023-05-24T03:53:23.220Z,5.500
2023-05-24T03:54:22.666Z,5.600
2023-05-24T03:55:39.346Z,5.400
2023-05-24T03:56:29.305Z,5.400
2023-05-24T03:57:29.057Z,5.100
2023-05-24T04:00:22.052Z,5.400
2023-05-24T04:01:34.291Z,5.750
2023-05-24T04:02:43.895Z,5.600
2023-05-24T04:03:29.984Z,5.600
2023-05-24T04:04:33.972Z,5.450
2023-05-24T04:05:26.869Z,5.100
2023-05-24T04:06:21.476Z,5.300
2023-05-24T04:07:24.369Z,5.600
2023-05-24T04:09:00.571Z,5.650
2023-05-24T04:09:23.464Z,5.400
2023-05-24T04:10:25.468Z,5.100
2023-05-24T04:11:37.218Z,5.400
2023-05-24T04:12:31.028Z,5.650
2023-05-24T04:13:25.543Z,5.500
2023-05-24T04:14:27.553Z,5.700
2023-05-24T04:16:28.593Z,5.900
2023-05-24T04:17:22.881Z,5.700
2023-05-24T04:18:23.665Z,6.000
2023-05-24T04:19:36.590Z,5.550
2023-05-24T04:20:29.827Z,5.400
2023-05-24T04:21:23.484Z,5.900
2023-05-24T04:22:33.559Z,6.100
2023-05-24T04:23:27.060Z,6.400
2023-05-24T04:24:25.819Z,6.600
2023-05-24T04:25:25.131Z,6.650
2023-05-24T04:26:40.636Z,6.300
2023-05-24T04:27:26.446Z,5.900
2023-05-24T04:28:25.022Z,5.800
2023-05-24T04:29:22.046Z,5.300
2023-05-24T04:30:37.579Z,5.600
2023-05-24T04:31:29.811Z,5.300
2023-05-24T04:32:22.068Z,5.300
2023-05-24T04:33:31.785Z,5.600
2023-05-24T04:34:24.847Z,5.800
2023-05-24T04:35:30.609Z,6.000
2023-05-24T04:36:23.275Z,5.800
2023-05-24T04:37:40.805Z,6.100
2023-05-24T04:38:25.608Z,5.700
2023-05-24T04:39:25.146Z,5.850
2023-05-24T04:40:49.533Z,5.900
2023-05-24T04:41:43.786Z,6.150
2023-05-24T04:42:36.624Z,5.500
2023-05-24T04:43:27.176Z,5.700
2023-05-24T04:44:19.495Z,6.050
2023-05-24T04:45:23.929Z,6.300
2023-05-24T04:46:29.086Z,6.800
2023-05-24T04:47:24.220Z,6.500
2023-05-24T04:48:25.542Z,6.500
2023-05-24T04:49:21.032Z,6.800
2023-05-24T04:50:32.720Z,6.100
2023-05-24T04:51:31.492Z,6.100
2023-05-24T04:52:23.937Z,5.750
2023-05-24T04:53:35.342Z,6.200
2023-05-24T04:54:26.473Z,5.900
2023-05-24T04:55:24.594Z,5.450
2023-05-24T04:56:36.616Z,5.600
2023-05-24T04:57:34.740Z,5.550
2023-05-24T04:58:29.856Z,5.600
2023-05-24T04:59:22.787Z,5.600
2023-05-24T05:01:07.160Z,6.100
2023-05-24T05:02:23.978Z,6.100
2023-05-24T05:03:21.738Z,6.200
2023-05-24T05:04:33.032Z,5.800
2023-05-24T05:05:22.893Z,5.800
2023-05-24T05:06:27.164Z,6.100
2023-05-24T05:07:36.156Z,5.850
2023-05-24T05:08:30.291Z,6.600
2023-05-24T05:09:29.186Z,6.050
2023-05-24T05:10:21.181Z,6.150
2023-05-24T05:11:40.626Z,6.200
2023-05-24T05:12:26.028Z,6.200
2023-05-24T05:13:23.213Z,6.250
2023-05-24T05:14:24.211Z,6.300
2023-05-24T05:15:35.075Z,6.100
2023-05-24T05:16:20.409Z,5.700
2023-05-24T05:17:24.311Z,5.800
2023-05-24T05:18:33.316Z,5.600
2023-05-24T05:19:28.203Z,5.100
2023-05-24T05:20:22.613Z,5.400
2023-05-24T05:21:26.524Z,5.750
2023-05-24T05:22:21.420Z,5.700
2023-05-24T05:23:23.629Z,5.700
2023-05-24T05:24:28.678Z,6.200
2023-05-24T05:25:21.358Z,6.650
2023-05-24T05:26:32.380Z,6.300
2023-05-24T05:27:23.669Z,6.500
2023-05-24T05:28:32.117Z,6.600
2023-05-24T05:29:25.351Z,6.300
2023-05-24T05:30:26.191Z,6.750
2023-05-24T05:31:20.681Z,6.900
2023-05-24T05:32:27.241Z,6.550
2023-05-24T05:33:35.494Z,6.500
2023-05-24T05:34:22.465Z,6.700
2023-05-24T05:35:37.272Z,6.850
2023-05-24T05:36:29.617Z,6.600
2023-05-24T05:37:22.659Z,7.000
2023-05-24T05:38:21.412Z,6.500
2023-05-24T05:39:30.457Z,7.000
2023-05-24T05:40:23.763Z,7.100
2023-05-24T05:41:26.651Z,7.000
2023-05-24T05:42:40.683Z,6.500
2023-05-24T05:43:30.425Z,6.200
2023-05-24T05:44:25.283Z,5.950
2023-05-24T05:45:21.819Z,6.000
2023-05-24T05:46:33.515Z,6.200
2023-05-24T05:47:27.397Z,6.250
2023-05-24T05:48:27.943Z,6.150
2023-05-24T05:50:03.886Z,7.600
2023-05-24T05:50:28.865Z,6.700
2023-05-24T05:51:24.894Z,7.100
2023-05-24T05:52:22.896Z,7.100
2023-05-24T05:53:30.712Z,6.800
2023-05-24T05:54:32.026Z,6.600
2023-05-24T05:55:24.911Z,7.300
2023-05-24T05:56:33.897Z,6.950
2023-05-24T05:57:29.023Z,6.750
2023-05-24T05:58:25.967Z,7.300
2023-05-24T05:59:27.631Z,7.150
2023-05-24T06:00:19.578Z,6.800
2023-05-24T06:01:35.984Z,6.500
2023-05-24T06:02:23.014Z,6.500
2023-05-24T06:03:35.399Z,6.350
2023-05-24T06:04:47.980Z,6.100
2023-05-24T06:05:26.769Z,6.850
2023-05-24T06:06:34.882Z,6.850
2023-05-24T06:07:23.755Z,6.200
2023-05-24T06:08:27.125Z,6.650
2023-05-24T06:09:23.418Z,6.400
2023-05-24T06:10:27.100Z,6.050
2023-05-24T06:11:47.025Z,6.400
2023-05-24T06:12:27.208Z,6.300
2023-05-24T06:13:21.549Z,6.750
2023-05-24T06:14:31.356Z,6.600
2023-05-24T06:15:23.036Z,6.200
2023-05-24T06:16:24.326Z,6.750
2023-05-24T06:17:30.229Z,6.300
2023-05-24T06:18:21.200Z,6.700
2023-05-24T06:19:22.456Z,6.400
2023-05-24T06:20:22.463Z,6.600
2023-05-24T06:21:21.550Z,6.500
2023-05-24T06:22:25.784Z,7.200
2023-05-24T06:23:22.784Z,7.000
2023-05-24T06:24:33.796Z,6.800
2023-05-24T06:25:28.259Z,6.500
2023-05-24T06:26:39.221Z,6.200
2023-05-24T06:27:21.768Z,6.100
2023-05-24T06:28:24.121Z,6.150
2023-05-24T06:29:31.291Z,6.450
2023-05-24T06:30:22.746Z,6.900
2023-05-24T06:31:32.977Z,6.750
2023-05-24T06:32:29.875Z,6.950
2023-05-24T06:33:24.635Z,6.400
2023-05-24T06:34:20.688Z,6.500
2023-05-24T06:35:27.249Z,6.400
2023-05-24T06:36:23.488Z,6.750
2023-05-24T06:37:22.373Z,6.500
2023-05-24T06:38:19.921Z,6.550
2023-05-24T06:39:22.892Z,6.600
2023-05-24T06:40:26.050Z,6.100
2023-05-24T06:41:21.177Z,6.500
2023-05-24T06:42:31.826Z,6.750
2023-05-24T06:43:39.476Z,6.700
2023-05-24T06:44:24.578Z,6.400
2023-05-24T06:45:24.073Z,6.600
2023-05-24T06:46:26.524Z,6.650
2023-05-24T06:47:20.471Z,6.700
2023-05-24T06:48:25.537Z,6.400
2023-05-24T06:49:31.901Z,6.450
2023-05-24T06:50:20.225Z,5.900
2023-05-24T06:51:38.719Z,6.150
2023-05-24T06:52:28.049Z,6.700
2023-05-24T06:53:20.966Z,6.350
2023-05-24T06:54:35.970Z,6.850
2023-05-24T06:55:21.034Z,6.600
2023-05-24T06:56:20.422Z,6.550
2023-05-24T06:57:27.724Z,7.000
2023-05-24T06:59:33.958Z,6.050
2023-05-24T07:00:24.959Z,6.700
2023-05-24T07:01:25.091Z,6.850
2023-05-24T07:02:20.699Z,6.400
2023-05-24T07:03:24.368Z,7.300
2023-05-24T07:04:22.467Z,7.700
2023-05-24T07:05:22.837Z,7.100
2023-05-24T07:06:32.609Z,6.800
2023-05-24T07:07:30.921Z,6.650
2023-05-24T07:08:21.194Z,6.750
2023-05-24T07:09:21.606Z,6.300
2023-05-24T07:10:30.609Z,5.900
2023-05-24T07:11:21.498Z,6.350
2023-05-24T07:12:22.991Z,6.900
2023-05-24T07:13:34.497Z,6.850
2023-05-24T07:14:33.567Z,7.100
2023-05-24T07:15:26.492Z,6.150
2023-05-24T07:16:19.265Z,6.350
2023-05-24T07:17:32.742Z,6.400
2023-05-24T07:18:28.911Z,6.200
2023-05-24T07:19:22.522Z,6.300
2023-05-24T07:20:34.228Z,5.900
2023-05-24T07:21:24.894Z,6.200
2023-05-24T07:22:27.495Z,5.800
2023-05-24T07:23:24.796Z,6.100
2023-05-24T07:24:30.646Z,5.600
2023-05-24T07:25:29.988Z,6.100
2023-05-24T07:26:23.643Z,6.050
2023-05-24T07:27:31.441Z,5.300
2023-05-24T07:28:28.530Z,5.800
2023-05-24T07:29:25.787Z,6.000
2023-05-24T07:30:32.497Z,6.650
2023-05-24T07:31:21.229Z,6.850
2023-05-24T07:32:21.395Z,7.600
2023-05-24T07:33:26.901Z,7.050
2023-05-24T07:34:33.946Z,6.450
2023-05-24T07:35:29.751Z,6.200
2023-05-24T07:36:25.930Z,5.900
2023-05-24T07:37:20.396Z,6.550
2023-05-24T07:38:27.032Z,6.400
2023-05-24T07:39:28.142Z,6.450
2023-05-24T07:40:22.619Z,5.600
2023-05-24T07:41:24.834Z,5.900
2023-05-24T07:42:30.187Z,6.000
2023-05-24T07:43:24.557Z,6.100
2023-05-24T07:44:25.408Z,5.400
2023-05-24T07:45:32.445Z,6.200
2023-05-24T07:46:22.280Z,5.900
2023-05-24T07:47:23.207Z,5.800
2023-05-24T07:48:27.060Z,6.450
2023-05-24T07:49:30.419Z,6.400
2023-05-24T07:50:25.719Z,5.600
2023-05-24T07:51:27.584Z,6.000
2023-05-24T07:52:34.753Z,5.850
2023-05-24T07:53:26.401Z,5.600
2023-05-24T07:54:19.297Z,6.300
2023-05-24T07:55:21.273Z,6.200
2023-05-24T07:56:25.781Z,6.050
2023-05-24T07:57:25.052Z,6.500
2023-05-24T07:58:20.944Z,6.600
2023-05-24T07:59:30.781Z,5.700
2023-05-24T08:00:20.169Z,5.900
2023-05-24T08:01:25.085Z,5.550
2023-05-24T08:02:24.633Z,5.700
2023-05-24T08:03:29.444Z,6.050
2023-05-24T08:04:21.406Z,6.200
2023-05-24T08:05:21.258Z,6.100
2023-05-24T08:06:25.752Z,5.750
2023-05-24T08:07:27.928Z,6.300
2023-05-24T08:08:23.028Z,6.250
2023-05-24T08:09:21.614Z,6.150
2023-05-24T08:10:28.875Z,7.200
2023-05-24T08:11:25.638Z,7.500
2023-05-24T08:12:29.865Z,7.300
2023-05-24T08:13:22.308Z,7.350
2023-05-24T08:14:28.740Z,6.500
2023-05-24T08:15:23.041Z,6.900
2023-05-24T08:16:24.884Z,6.600
2023-05-24T08:17:23.313Z,6.500
2023-05-24T08:18:25.094Z,6.400
2023-05-24T08:19:22.523Z,6.400
2023-05-24T08:20:27.640Z,6.000
2023-05-24T08:21:26.783Z,5.950
2023-05-24T08:22:24.197Z,6.200
2023-05-24T08:23:29.057Z,6.700
2023-05-24T08:24:22.401Z,6.600
2023-05-24T08:25:24.512Z,6.400
2023-05-24T08:26:20.821Z,6.600
2023-05-24T08:27:30.700Z,6.950
2023-05-24T08:28:26.600Z,6.500
2023-05-24T08:29:24.655Z,6.450
2023-05-24T08:30:37.700Z,6.600
2023-05-24T08:31:25.116Z,7.400
2023-05-24T08:32:24.772Z,6.750
2023-05-24T08:33:20.792Z,6.200
2023-05-24T08:34:25.607Z,6.450
2023-05-24T08:35:27.565Z,6.600
2023-05-24T08:36:23.702Z,5.900
2023-05-24T08:37:33.181Z,6.300
2023-05-24T08:38:32.820Z,7.400
2023-05-24T08:39:25.471Z,7.000
2023-05-24T08:40:21.028Z,7.000
2023-05-24T08:41:27.039Z,6.650
2023-05-24T08:42:21.442Z,6.700
2023-05-24T08:43:22.737Z,7.100
2023-05-24T08:44:32.969Z,7.600
2023-05-24T08:45:21.452Z,6.700
2023-05-24T08:46:26.360Z,6.200
2023-05-24T08:47:36.414Z,6.850
2023-05-24T08:48:31.623Z,6.300
2023-05-24T08:49:25.476Z,6.750
2023-05-24T08:50:22.622Z,7.050
2023-05-24T08:51:26.124Z,6.700
2023-05-24T08:52:29.058Z,6.850
2023-05-24T08:53:24.582Z,6.600
2023-05-24T08:54:20.799Z,6.450
2023-05-24T08:55:33.085Z,6.900
2023-05-24T08:56:28.758Z,6.600
2023-05-24T08:57:22.984Z,6.400
2023-05-24T08:58:34.044Z,7.300
2023-05-24T08:59:28.913Z,7.000
2023-05-24T09:00:27.057Z,7.350
2023-05-24T09:01:22.722Z,7.600
2023-05-24T09:02:24.890Z,6.850
2023-05-24T09:03:34.461Z,7.250
2023-05-24T09:04:25.229Z,6.700
2023-05-24T09:05:34.464Z,7.600
2023-05-24T09:06:28.943Z,7.600
2023-05-24T09:07:25.588Z,7.150
2023-05-24T09:08:20.656Z,6.800
2023-05-24T09:09:26.776Z,6.700
2023-05-24T09:10:27.472Z,6.150
2023-05-24T09:11:23.137Z,5.750
2023-05-24T09:12:38.183Z,6.500
2023-05-24T09:13:19.932Z,7.300
2023-05-24T09:14:24.973Z,6.800
2023-05-24T09:15:21.053Z,7.200
2023-05-24T09:16:32.158Z,6.650
2023-05-24T09:17:23.743Z,7.000
2023-05-24T09:18:23.008Z,7.700
2023-05-24T09:19:26.239Z,7.100
2023-05-24T09:20:29.127Z,7.150
2023-05-24T09:21:24.972Z,7.600
2023-05-24T09:22:21.158Z,7.450
2023-05-24T09:23:30.907Z,6.700
2023-05-24T09:24:29.627Z,7.350
2023-05-24T09:25:23.060Z,8.200
2023-05-24T09:26:33.820Z,7.450
2023-05-24T09:27:23.494Z,6.300
2023-05-24T09:28:25.041Z,6.450
2023-05-24T09:29:21.436Z,6.300
2023-05-24T09:30:22.426Z,6.800
2023-05-24T09:31:28.868Z,6.450
2023-05-24T09:32:25.150Z,6.200
2023-05-24T09:33:35.269Z,6.900
2023-05-24T09:34:28.698Z,6.600
2023-05-24T09:35:21.395Z,6.550
2023-05-24T09:36:21.144Z,7.100
2023-05-24T09:37:32.669Z,7.300
2023-05-24T09:38:28.662Z,8.100
2023-05-24T09:39:23.711Z,8.300
2023-05-24T09:40:23.784Z,7.950
2023-05-24T09:41:31.479Z,7.800
2023-05-24T09:42:25.867Z,7.000
2023-05-24T09:43:23.059Z,8.150
2023-05-24T09:44:31.826Z,7.600
2023-05-24T09:45:28.285Z,7.600
2023-05-24T09:46:22.906Z,8.400
2023-05-24T09:47:28.099Z,7.350
2023-05-24T09:48:38.350Z,7.550
2023-05-24T09:49:28.375Z,6.400
2023-05-24T09:50:31.524Z,7.850
2023-05-24T09:51:31.140Z,8.000
2023-05-24T09:52:28.237Z,8.450
2023-05-24T09:53:23.477Z,8.150
2023-05-24T09:54:25.180Z,7.300
2023-05-24T09:55:23.330Z,7.350
2023-05-24T09:56:24.928Z,8.000
2023-05-24T09:57:20.446Z,7.650
2023-05-24T09:58:21.210Z,7.700
2023-05-24T09:59:28.840Z,7.900
2023-05-24T10:00:22.761Z,8.600
2023-05-24T10:01:34.621Z,8.300
2023-05-24T10:02:35.478Z,7.550
2023-05-24T10:03:20.577Z,6.300
2023-05-24T10:04:22.717Z,6.600
2023-05-24T10:05:23.088Z,7.100
2023-05-24T10:06:27.003Z,7.500
2023-05-24T10:07:26.136Z,7.300
2023-05-24T10:08:32.891Z,6.700
2023-05-24T10:09:33.014Z,6.650
2023-05-24T10:10:44.612Z,7.700
2023-05-24T10:11:22.182Z,7.700
2023-05-24T10:12:30.903Z,6.300
2023-05-24T10:13:27.174Z,5.800
2023-05-24T10:14:23.084Z,6.700
2023-05-24T10:15:23.952Z,6.100
2023-05-24T10:16:21.699Z,6.650
2023-05-24T10:17:27.455Z,5.800
2023-05-24T10:18:22.386Z,6.200
2023-05-24T10:19:32.898Z,6.000
2023-05-24T10:20:22.817Z,6.400
2023-05-24T10:21:23.110Z,6.700
2023-05-24T10:22:35.415Z,5.650
2023-05-24T10:23:24.116Z,6.300
2023-05-24T10:24:24.993Z,6.450
2023-05-24T10:25:22.409Z,5.900
2023-05-24T10:26:19.826Z,6.000
2023-05-24T10:27:27.976Z,5.700
2023-05-24T10:28:23.058Z,6.200
2023-05-24T10:29:32.721Z,5.500
2023-05-24T10:30:30.713Z,6.050
2023-05-24T10:31:24.984Z,6.500
2023-05-24T10:32:22.509Z,6.700
2023-05-24T10:33:24.202Z,6.050
2023-05-24T10:34:22.115Z,6.400
2023-05-24T10:35:26.475Z,6.800
2023-05-24T10:36:34.621Z,5.450
2023-05-24T10:37:30.900Z,5.600
2023-05-24T10:38:24.834Z,5.350
2023-05-24T10:39:21.848Z,6.400
2023-05-24T10:40:28.386Z,7.700
2023-05-24T10:41:20.473Z,6.600
2023-05-24T10:42:22.901Z,7.100
2023-05-24T10:43:23.412Z,7.250
2023-05-24T10:44:28.774Z,6.700
2023-05-24T10:45:20.243Z,6.600
2023-05-24T10:46:23.248Z,6.700
2023-05-24T10:47:33.049Z,5.600
2023-05-24T10:48:26.811Z,6.400
2023-05-24T10:49:22.956Z,5.850
2023-05-24T10:50:25.207Z,6.000
2023-05-24T10:51:28.650Z,6.400
2023-05-24T10:52:26.523Z,5.200
2023-05-24T10:53:21.432Z,5.700
2023-05-24T10:54:31.183Z,5.200
2023-05-24T10:55:33.913Z,5.950
2023-05-24T10:56:23.518Z,5.400
2023-05-24T10:57:29.443Z,5.000
2023-05-24T10:58:24.188Z,5.300
2023-05-24T10:59:27.030Z,5.200
2023-05-24T11:00:33.709Z,5.300
2023-05-24T11:01:32.764Z,5.700
2023-05-24T11:02:28.688Z,5.500
2023-05-24T11:03:23.952Z,5.000
2023-05-24T11:04:33.048Z,5.450
2023-05-24T11:05:27.169Z,5.200
2023-05-24T11:06:24.701Z,5.350
2023-05-24T11:07:20.726Z,5.400
2023-05-24T11:08:31.084Z,5.750
2023-05-24T11:09:29.504Z,5.250
2023-05-24T11:10:24.309Z,4.900
2023-05-24T11:11:27.413Z,5.000
2023-05-24T11:12:31.210Z,5.250
2023-05-24T11:13:25.191Z,5.600
2023-05-24T11:14:23.542Z,5.850
2023-05-24T11:15:33.314Z,5.550
2023-05-24T11:16:27.103Z,5.150
2023-05-24T11:17:23.269Z,5.900
2023-05-24T11:18:27.766Z,5.850
2023-05-24T11:19:20.720Z,5.600
2023-05-24T11:20:29.713Z,5.550
2023-05-24T11:21:22.261Z,6.100
2023-05-24T11:22:32.534Z,6.000
2023-05-24T11:23:27.100Z,5.000
2023-05-24T11:24:24.844Z,5.200
2023-05-24T11:25:33.592Z,5.400
2023-05-24T11:26:25.946Z,6.100
2023-05-24T11:27:25.053Z,4.850
2023-05-24T11:28:25.374Z,5.200
2023-05-24T11:29:32.540Z,5.050
2023-05-24T11:30:26.994Z,4.900
2023-05-24T11:31:25.448Z,5.000
2023-05-24T11:32:20.554Z,5.500
2023-05-24T11:33:46.068Z,4.900
2023-05-24T11:34:23.097Z,4.950
2023-05-24T11:35:21.766Z,4.500
2023-05-24T11:36:21.560Z,5.150
2023-05-24T11:37:42.618Z,5.100
2023-05-24T11:38:25.022Z,6.000
2023-05-24T11:39:21.040Z,5.600
2023-05-24T11:40:30.024Z,5.350
2023-05-24T11:41:27.081Z,5.100
2023-05-24T11:42:22.251Z,5.200
2023-05-24T11:43:24.983Z,5.050
2023-05-24T11:44:27.570Z,4.950
2023-05-24T11:45:24.631Z,4.700
2023-05-24T11:46:26.435Z,4.800
2023-05-24T11:47:39.271Z,5.500
2023-05-24T11:48:24.926Z,5.000
2023-05-24T11:49:24.338Z,5.150
2023-05-24T11:50:22.343Z,5.100
2023-05-24T11:51:23.629Z,4.700
2023-05-24T11:52:22.915Z,4.650
2023-05-24T11:53:29.617Z,5.400
2023-05-24T11:54:30.066Z,5.050
2023-05-24T11:55:24.970Z,4.550
2023-05-24T11:56:21.610Z,4.700
2023-05-24T11:57:25.182Z,4.950
2023-05-24T11:58:26.753Z,4.950
2023-05-24T11:59:24.164Z,5.300
2023-05-24T12:00:35.154Z,5.000
2023-05-24T12:01:29.763Z,5.300
2023-05-24T12:02:26.964Z,5.100
2023-05-24T12:03:23.317Z,5.200
2023-05-24T12:04:27.595Z,4.950
2023-05-24T12:05:26.781Z,4.300
2023-05-24T12:06:23.386Z,4.650
2023-05-24T12:07:35.922Z,5.300
2023-05-24T12:08:22.430Z,4.700
2023-05-24T12:09:24.830Z,5.150
2023-05-24T12:10:22.936Z,4.900
2023-05-24T12:11:34.241Z,4.900
2023-05-24T12:12:30.447Z,4.900
2023-05-24T12:13:24.048Z,4.800
2023-05-24T12:14:20.002Z,5.250
2023-05-24T12:15:25.462Z,5.600
2023-05-24T12:16:26.290Z,5.000
2023-05-24T12:17:20.802Z,5.400
2023-05-24T12:18:33.559Z,5.300
2023-05-24T12:19:32.441Z,5.100
2023-05-24T12:20:22.770Z,4.800
2023-05-24T12:21:24.019Z,5.250
2023-05-24T12:22:30.423Z,5.300
2023-05-24T12:23:24.669Z,5.200
2023-05-24T12:24:21.565Z,5.150
2023-05-24T12:25:37.299Z,5.100
2023-05-24T12:26:23.572Z,4.700
2023-05-24T12:27:24.764Z,4.400
2023-05-24T12:28:27.668Z,5.050
2023-05-24T12:29:20.657Z,4.900
2023-05-24T12:30:25.866Z,5.000
2023-05-24T12:31:20.740Z,5.200
2023-05-24T12:32:31.168Z,5.000
2023-05-24T12:33:28.644Z,4.850
2023-05-24T12:34:23.152Z,4.850
2023-05-24T12:35:21.915Z,4.400
2023-05-24T12:36:24.852Z,4.550
2023-05-24T12:37:21.858Z,4.700
2023-05-24T12:38:21.951Z,5.000
2023-05-24T12:39:32.505Z,5.000
2023-05-24T12:40:29.221Z,4.700
2023-05-24T12:41:23.181Z,4.350
2023-05-24T12:42:25.721Z,4.800
2023-05-24T12:43:37.916Z,4.900
2023-05-24T12:44:27.172Z,4.400
2023-05-24T12:45:21.064Z,4.700
2023-05-24T12:46:32.416Z,5.000
2023-05-24T12:47:28.488Z,4.500
2023-05-24T12:48:24.584Z,4.600
2023-05-24T12:49:28.796Z,4.800
2023-05-24T12:50:22.252Z,4.800
2023-05-24T12:51:26.041Z,4.400
2023-05-24T12:52:21.122Z,4.700
2023-05-24T12:53:33.107Z,5.000
2023-05-24T12:54:26.924Z,5.300
2023-05-24T12:55:23.022Z,5.150
2023-05-24T12:56:44.587Z,5.100
2023-05-24T12:57:28.895Z,5.300
2023-05-24T12:58:25.986Z,5.000
2023-05-24T12:59:23.099Z,4.850
2023-05-24T13:00:30.765Z,5.400
2023-05-24T13:01:28.647Z,4.700
2023-05-24T13:02:25.678Z,5.100
2023-05-24T13:03:34.614Z,5.500
2023-05-24T13:04:30.365Z,5.200
2023-05-24T13:05:26.717Z,5.350
2023-05-24T13:06:22.358Z,5.300
2023-05-24T13:07:21.202Z,5.200
2023-05-24T13:08:28.271Z,5.350
2023-05-24T13:09:22.897Z,4.900